Time;durP1;ratioP1;P1;durP2;ratioP2;P2;SDS_P1;SDS_P2;PMS_P1;PMS_P2;Temp;Humidity;BMP_temperature;BMP_pressure;BME280_temperature;BME280_humidity;BME280_pressure;Samples;Min_cycle;Max_cycle;Signal;HPM_P1;HPM_P2
2022/05/10 00:00:30;;;;;;;4.60;2.00;;;;;;;14.24;46.51;99670.03;5108305;28;20237;-85
2022/05/10 00:03:00;;;;;;;3.60;1.80;;;;;;;14.23;47.29;99673.53;5108301;28;20310;-89
2022/05/10 00:05:32;;;;;;;3.30;1.83;;;;;;;14.22;46.72;99668.50;5108334;28;20218;-89
2022/05/10 00:08:00;;;;;;;7.47;1.93;;;;;;;14.23;47.10;99662.44;5108057;28;20271;-90
2022/05/10 00:10:27;;;;;;;2.20;1.90;;;;;;;14.21;47.83;99667.69;5107888;28;20279;-90
2022/05/10 00:12:54;;;;;;;2.07;1.70;;;;;;;14.19;48.04;99666.97;5108042;28;20221;-89
2022/05/10 00:15:21;;;;;;;2.20;1.80;;;;;;;14.16;47.97;99664.66;5108282;28;20608;-83
2022/05/10 00:17:48;;;;;;;2.70;2.00;;;;;;;14.10;48.07;99662.56;5108180;28;20199;-90
2022/05/10 00:20:20;;;;;;;3.87;1.90;;;;;;;14.03;47.93;99659.66;5108198;28;20218;-83
2022/05/10 00:22:47;;;;;;;4.23;1.70;;;;;;;13.99;48.83;99654.84;5108043;28;20674;-83
2022/05/10 00:25:16;;;;;;;6.00;1.83;;;;;;;13.94;49.81;99667.28;5107920;28;20225;-84
2022/05/10 00:27:43;;;;;;;2.73;1.80;;;;;;;13.87;51.08;99664.34;5110006;28;20949;-83
2022/05/10 00:30:11;;;;;;;3.90;1.97;;;;;;;13.75;51.08;99660.13;5111254;28;20735;-83
2022/05/10 00:32:39;;;;;;;4.80;1.90;;;;;;;13.65;51.53;99654.88;5111687;28;20195;-83
2022/05/10 00:35:15;;;;;;;3.27;1.90;;;;;;;13.57;51.60;99649.50;5111521;28;20757;-89
2022/05/10 00:37:44;;;;;;;3.23;1.70;;;;;;;13.51;51.71;99655.91;5111639;28;20229;-83
2022/05/10 00:40:14;;;;;;;2.00;1.70;;;;;;;13.43;51.74;99655.69;5111269;28;20543;-83
2022/05/10 00:42:51;;;;;;;3.47;2.00;;;;;;;13.38;52.06;99654.38;5111471;28;20588;-83
2022/05/10 00:45:24;;;;;;;2.20;1.80;;;;;;;13.30;51.95;99653.22;5111499;28;20223;-91
2022/05/10 00:48:05;;;;;;;2.30;1.80;;;;;;;13.27;52.32;99647.50;5111321;28;20667;-83
2022/05/10 00:50:38;;;;;;;2.20;1.80;;;;;;;13.23;51.93;99646.84;5111244;28;20218;-83
2022/05/10 00:53:13;;;;;;;5.97;1.90;;;;;;;13.19;52.24;99642.88;5111497;28;20583;-89
2022/05/10 00:55:45;;;;;;;4.17;2.00;;;;;;;13.12;52.93;99649.41;5111218;28;20562;-83
2022/05/10 00:58:24;;;;;;;4.50;1.80;;;;;;;13.03;52.57;99656.06;5111357;28;20205;-84
2022/05/10 01:00:52;;;;;;;4.53;2.50;;;;;;;12.89;52.14;99654.50;5111328;28;20228;-90
2022/05/10 01:03:25;;;;;;;4.07;1.77;;;;;;;12.84;52.01;99656.56;5111324;28;20233;-89
2022/05/10 01:06:08;;;;;;;3.47;1.90;;;;;;;12.83;52.51;99660.06;5110874;28;20217;-90
2022/05/10 01:08:43;;;;;;;7.07;2.00;;;;;;;12.81;53.32;99651.66;5110897;28;20505;-90
2022/05/10 01:11:15;;;;;;;3.27;2.10;;;;;;;12.75;54.06;99653.84;5110654;28;20239;-82
2022/05/10 01:13:49;;;;;;;5.13;2.60;;;;;;;12.76;54.29;99647.78;5110540;28;20200;-83
2022/05/10 01:16:17;;;;;;;6.73;2.47;;;;;;;12.68;55.60;99650.88;5110893;28;20634;-83
2022/05/10 01:18:45;;;;;;;3.40;2.20;;;;;;;12.69;56.12;99652.53;5110764;28;20240;-83
2022/05/10 01:21:24;;;;;;;5.07;2.50;;;;;;;12.69;58.04;99653.34;5110508;28;20244;-82
2022/05/10 01:24:22;;;;;;;4.77;2.60;;;;;;;12.65;59.45;99643.41;5110349;28;20742;-90
2022/05/10 01:27:09;;;;;;;4.47;2.63;;;;;;;12.60;60.45;99648.06;5108454;28;20232;-90
2022/05/10 01:29:42;;;;;;;6.77;2.80;;;;;;;12.56;61.07;99644.06;5110223;28;20225;-90
2022/05/10 01:35:02;;;;;;;7.93;2.73;;;;;;;12.51;62.32;99648.72;5110299;28;20301;-90
2022/05/10 01:37:34;;;;;;;5.97;2.70;;;;;;;12.50;62.82;99652.22;5110370;28;20205;-83
2022/05/10 01:40:05;;;;;;;6.33;2.77;;;;;;;12.50;63.08;99652.22;5110199;28;20229;-82
2022/05/10 01:42:38;;;;;;;5.40;2.87;;;;;;;12.48;63.79;99651.50;5110225;28;20209;-83
2022/05/10 01:45:14;;;;;;;4.87;2.73;;;;;;;12.45;64.25;99661.06;5109613;28;20344;-90
2022/05/10 01:47:46;;;;;;;10.03;3.03;;;;;;;12.42;65.26;99648.47;5110255;28;20204;-83
2022/05/10 01:50:18;;;;;;;5.23;2.90;;;;;;;12.43;66.11;99649.28;5109979;28;20615;-90
2022/05/10 01:52:51;;;;;;;11.17;3.50;;;;;;;12.43;65.77;99649.28;5110025;28;20595;-82
2022/05/10 01:55:28;;;;;;;4.47;2.90;;;;;;;12.35;66.67;99647.25;5109932;28;20217;-90
2022/05/10 01:57:59;;;;;;;5.67;3.03;;;;;;;12.35;67.39;99647.25;5109910;28;20197;-90
2022/05/10 02:00:30;;;;;;;5.80;3.20;;;;;;;12.31;67.75;99638.13;5109813;28;20235;-83
2022/05/10 02:03:02;;;;;;;5.97;3.33;;;;;;;12.23;67.30;99635.28;5109712;28;20193;-82
2022/05/10 02:05:35;;;;;;;8.13;3.57;;;;;;;12.21;67.12;99634.56;5109463;28;20222;-90
2022/05/10 02:08:08;;;;;;;5.33;3.07;;;;;;;12.23;66.03;99635.28;5109780;28;20290;-89
2022/05/10 02:10:39;;;;;;;4.33;3.00;;;;;;;12.24;65.09;99639.47;5109454;28;20282;-90
2022/05/10 02:13:10;;;;;;;7.47;3.33;;;;;;;12.24;64.37;99636.91;5109679;28;20237;-82
2022/05/10 02:15:44;;;;;;;5.63;2.80;;;;;;;12.28;64.32;99640.91;5109200;28;20225;-82
2022/05/10 02:18:19;;;;;;;5.03;2.70;;;;;;;12.30;64.11;99641.59;5109567;28;20193;-90
2022/05/10 02:20:50;;;;;;;6.23;2.87;;;;;;;12.31;62.65;99643.25;5109606;28;20224;-83
2022/05/10 02:23:21;;;;;;;6.60;3.40;;;;;;;12.28;61.38;99643.47;5109578;28;20316;-82
2022/05/10 02:25:54;;;;;;;6.10;3.17;;;;;;;12.29;61.75;99645.09;5109247;28;20315;-83
2022/05/10 02:28:39;;;;;;;4.93;3.33;;;;;;;12.28;61.78;99648.63;5109045;28;20212;-82
2022/05/10 02:31:14;;;;;;;7.73;3.60;;;;;;;12.28;61.43;99643.47;5108956;28;20225;-89
2022/05/10 02:33:41;;;;;;;6.07;3.03;;;;;;;12.28;63.42;99648.63;5109091;28;20211;-82
2022/05/10 02:36:08;;;;;;;8.20;3.50;;;;;;;12.24;62.69;99647.97;5108933;28;20221;-90
2022/05/10 02:38:38;;;;;;;8.87;3.03;;;;;;;12.22;63.06;99643.91;5109268;28;20197;-90
2022/05/10 02:41:10;;;;;;;8.33;3.30;;;;;;;12.21;63.39;99639.69;5109028;28;20229;-90
2022/05/10 02:43:44;;;;;;;6.37;3.20;;;;;;;12.16;62.88;99650.28;5109112;28;20228;-90
2022/05/10 02:46:12;;;;;;;5.77;3.37;;;;;;;12.14;63.85;99647.00;5108822;28;20439;-82
2022/05/10 02:48:40;;;;;;;5.60;3.30;;;;;;;12.10;64.03;99639.63;5108893;28;20204;-83
2022/05/10 02:51:07;;;;;;;5.63;3.47;;;;;;;12.08;63.70;99644.06;5108439;28;20752;-90
2022/05/10 02:53:34;;;;;;;7.80;3.50;;;;;;;12.05;62.73;99646.84;5108961;28;20219;-82
2022/05/10 02:56:04;;;;;;;7.03;3.60;;;;;;;12.03;62.64;99638.44;5108591;28;20236;-82
2022/05/10 02:58:35;;;;;;;5.67;3.37;;;;;;;12.02;62.55;99642.75;5109120;28;20205;-82
2022/05/10 03:01:07;;;;;;;6.20;3.33;;;;;;;11.98;62.34;99642.13;5108711;28;20653;-91
2022/05/10 03:03:36;;;;;;;6.70;3.70;;;;;;;11.97;61.87;99643.03;5108720;28;20224;-82
2022/05/10 03:06:04;;;;;;;5.57;3.17;;;;;;;11.92;62.43;99646.84;5108742;28;20221;-83
2022/05/10 03:08:31;;;;;;;7.10;3.37;;;;;;;11.93;62.93;99639.06;5108761;28;20255;-82
2022/05/10 03:10:58;;;;;;;4.73;3.40;;;;;;;11.92;63.34;99646.84;5108482;28;20213;-82
2022/05/10 03:13:25;;;;;;;5.43;3.53;;;;;;;11.93;64.43;99644.19;5108621;28;20642;-82
2022/05/10 03:15:52;;;;;;;8.73;3.17;;;;;;;11.94;64.84;99639.88;5108416;28;20213;-89
2022/05/10 03:18:19;;;;;;;8.53;3.50;;;;;;;11.93;63.29;99641.63;5108702;28;20567;-89
2022/05/10 03:20:47;;;;;;;5.23;3.30;;;;;;;11.95;62.86;99647.44;5108593;28;20229;-90
2022/05/10 03:23:14;;;;;;;5.67;2.97;;;;;;;11.95;64.08;99644.88;5108355;28;20189;-82
2022/05/10 03:25:41;;;;;;;6.37;3.27;;;;;;;11.97;64.64;99640.47;5108466;28;20250;-90
2022/05/10 03:28:08;;;;;;;6.83;3.60;;;;;;;11.96;64.17;99643.97;5108597;28;20205;-82
2022/05/10 03:30:35;;;;;;;7.37;3.27;;;;;;;11.97;63.99;99640.47;5108380;28;20233;-82
2022/05/10 03:33:02;;;;;;;8.43;3.10;;;;;;;11.99;64.00;99643.75;5108354;28;20216;-82
2022/05/10 03:35:29;;;;;;;7.13;3.43;;;;;;;12.00;64.29;99640.25;5108128;28;20220;-89
2022/05/10 03:37:57;;;;;;;6.83;3.20;;;;;;;12.04;63.80;99640.88;5108363;28;20212;-82
2022/05/10 03:40:24;;;;;;;4.57;3.30;;;;;;;12.09;62.19;99648.25;5108535;28;20731;-83
2022/05/10 03:42:55;;;;;;;5.07;3.07;;;;;;;12.11;60.83;99654.91;5108297;28;20198;-90
2022/05/10 03:45:24;;;;;;;7.37;2.90;;;;;;;12.08;60.78;99655.13;5107985;28;20244;-83
2022/05/10 03:47:52;;;;;;;6.43;2.80;;;;;;;12.14;60.45;99656.44;5108556;28;20627;-82
2022/05/10 03:50:21;;;;;;;4.37;3.13;;;;;;;12.23;60.62;99671.19;5108242;28;20237;-82
2022/05/10 03:52:48;;;;;;;7.20;3.57;;;;;;;12.27;60.75;99664.09;5108666;28;20258;-90
2022/05/10 03:55:18;;;;;;;7.57;3.53;;;;;;;12.35;60.54;99665.19;5108313;28;20236;-91
2022/05/10 03:57:45;;;;;;;8.70;4.00;;;;;;;12.48;60.84;99674.56;5108725;28;20205;-90
2022/05/10 04:00:16;;;;;;;7.37;3.53;;;;;;;12.51;61.74;99679.50;5108274;28;20252;-90
2022/05/10 04:02:44;;;;;;;8.53;3.73;;;;;;;12.42;63.90;99676.66;5110635;28;20217;-82
2022/05/10 04:05:12;;;;;;;7.50;3.63;;;;;;;12.43;64.37;99680.03;5112028;28;20239;-82
2022/05/10 04:07:39;;;;;;;9.27;4.20;;;;;;;12.40;64.58;99682.81;5112037;28;20201;-83
2022/05/10 04:10:08;;;;;;;7.43;4.03;;;;;;;12.44;65.88;99682.47;5112032;28;20217;-82
2022/05/10 04:12:37;;;;;;;8.97;3.87;;;;;;;12.53;65.59;99685.34;5112229;28;20228;-82
2022/05/10 04:15:06;;;;;;;5.90;3.60;;;;;;;12.61;66.11;99683.06;5112055;28;20225;-82
2022/05/10 04:17:33;;;;;;;7.07;4.03;;;;;;;12.68;65.88;99682.53;5112170;28;20194;-90
2022/05/10 04:19:59;;;;;;;7.23;3.83;;;;;;;12.73;66.23;99683.91;5111952;28;20719;-89
2022/05/10 04:22:26;;;;;;;6.70;4.00;;;;;;;12.82;66.05;99684.06;5112155;28;20221;-82
2022/05/10 04:24:53;;;;;;;9.00;4.13;;;;;;;12.88;65.72;99691.31;5111504;28;20233;-90
2022/05/10 04:27:20;;;;;;;6.93;3.90;;;;;;;12.98;66.60;99693.25;5111547;28;20710;-82
2022/05/10 04:29:48;;;;;;;6.13;3.87;;;;;;;13.13;68.44;99692.94;5111344;28;20224;-90
2022/05/10 04:32:15;;;;;;;6.47;3.70;;;;;;;13.16;68.29;99699.59;5111772;28;20197;-89
2022/05/10 04:34:42;;;;;;;7.17;3.70;;;;;;;13.18;68.44;99689.22;5111420;28;20225;-82
2022/05/10 04:37:09;;;;;;;8.70;3.80;;;;;;;13.21;70.33;99699.28;5111343;28;20249;-90
2022/05/10 04:42:16;;;;;;;8.10;3.50;;;;;;;13.43;68.55;99689.06;5087881;28;20693;-84
2022/05/10 04:44:43;;;;;;;9.27;4.00;;;;;;;13.56;70.31;99691.56;5111139;27;20233;-89
2022/05/10 04:47:11;;;;;;;6.03;3.77;;;;;;;13.78;70.66;99688.97;5111300;28;20209;-84
2022/05/10 04:49:38;;;;;;;6.43;3.63;;;;;;;13.82;68.92;99695.53;5110870;28;20228;-84
2022/05/10 04:52:05;;;;;;;6.87;3.90;;;;;;;13.95;68.79;99694.59;5111177;27;20678;-89
2022/05/10 04:54:32;;;;;;;8.60;3.80;;;;;;;14.07;67.64;99693.66;5111144;28;20593;-85
2022/05/10 04:56:59;;;;;;;5.93;3.47;;;;;;;14.41;67.86;99707.28;5110844;28;20208;-88
2022/05/10 04:59:25;;;;;;;7.20;3.80;;;;;;;14.66;66.04;99706.22;5111140;28;20221;-90
2022/05/10 05:01:52;;;;;;;7.03;3.93;;;;;;;15.02;66.39;99703.41;5111257;28;20198;-90
2022/05/10 05:04:20;;;;;;;5.53;3.50;;;;;;;15.26;64.65;99703.97;5110960;28;20233;-90
2022/05/10 05:06:49;;;;;;;7.57;3.97;;;;;;;15.44;65.43;99711.94;5110917;28;20561;-83
2022/05/10 05:09:16;;;;;;;6.80;3.30;;;;;;;15.72;65.07;99715.66;5111118;28;20228;-83
2022/05/10 05:11:42;;;;;;;6.40;3.33;;;;;;;16.05;64.07;99716.34;5110831;28;20202;-83
2022/05/10 05:14:10;;;;;;;5.47;3.20;;;;;;;16.19;62.76;99712.59;5110444;28;20233;-83
2022/05/10 05:16:37;;;;;;;5.73;3.10;;;;;;;16.40;63.06;99710.72;5110841;28;20205;-91
2022/05/10 05:19:05;;;;;;;6.83;3.70;;;;;;;16.50;60.38;99711.56;5110526;28;20194;-90
2022/05/10 05:21:33;;;;;;;6.93;3.27;;;;;;;16.62;59.93;99704.53;5110651;28;20200;-89
2022/05/10 05:24:00;;;;;;;5.53;3.60;;;;;;;16.58;56.70;99712.66;5110575;28;20571;-83
2022/05/10 05:26:27;;;;;;;7.03;3.53;;;;;;;16.77;58.65;99712.72;5110696;28;20591;-83
2022/05/10 05:28:54;;;;;;;7.07;3.17;;;;;;;16.89;58.48;99716.78;5110233;28;20209;-86
2022/05/10 05:31:21;;;;;;;4.97;2.87;;;;;;;17.19;57.93;99715.00;5110403;28;20710;-89
2022/05/10 05:33:49;;;;;;;5.40;3.03;;;;;;;17.53;57.88;99709.38;5110501;28;20201;-85
2022/05/10 05:36:16;;;;;;;4.37;2.77;;;;;;;17.73;58.75;99710.13;5110720;28;20209;-83
2022/05/10 05:38:44;;;;;;;5.23;2.73;;;;;;;17.75;57.97;99711.63;5110013;28;20209;-86
2022/05/10 05:41:11;;;;;;;6.03;3.20;;;;;;;17.92;58.43;99714.44;5110257;28;20232;-85
2022/05/10 05:43:38;;;;;;;4.50;2.80;;;;;;;18.26;55.09;99712.91;5110195;28;20210;-88
2022/05/10 05:46:05;;;;;;;5.97;3.10;;;;;;;18.42;52.89;99711.47;5110058;28;20236;-89
2022/05/10 05:48:32;;;;;;;5.20;2.80;;;;;;;18.35;53.81;99715.59;5110263;28;20239;-87
2022/05/10 05:50:59;;;;;;;6.60;2.80;;;;;;;18.69;54.63;99715.78;5110118;28;20706;-88
2022/05/10 05:53:26;;;;;;;5.63;2.47;;;;;;;19.04;52.58;99714.19;5110045;28;20681;-87
2022/05/10 05:56:01;;;;;;;8.83;2.90;;;;;;;19.36;53.29;99716.19;5110163;28;20655;-88
2022/05/10 05:58:27;;;;;;;4.33;2.77;;;;;;;19.56;54.14;99722.81;5109799;28;20203;-89
2022/05/10 06:00:54;;;;;;;7.43;3.27;;;;;;;19.72;54.40;99723.91;5110045;28;20230;-88
2022/05/10 06:03:21;;;;;;;4.93;3.03;;;;;;;19.76;52.65;99723.44;5109961;28;20209;-86
2022/05/10 06:05:49;;;;;;;6.60;3.30;;;;;;;19.90;53.56;99724.66;5109720;28;20262;-89
2022/05/10 06:08:16;;;;;;;4.23;2.83;;;;;;;19.74;52.76;99729.75;5109721;28;20207;-88
2022/05/10 06:10:44;;;;;;;4.93;3.00;;;;;;;19.95;52.62;99722.38;5109368;28;20228;-88
2022/05/10 06:13:12;;;;;;;5.13;3.10;;;;;;;20.11;51.71;99732.03;5109738;28;20204;-87
2022/05/10 06:15:39;;;;;;;4.37;2.80;;;;;;;20.33;50.89;99741.03;5109786;28;20224;-88
2022/05/10 06:18:07;;;;;;;6.83;3.37;;;;;;;20.40;50.24;99742.03;5109476;28;20415;-87
2022/05/10 06:20:34;;;;;;;5.73;3.00;;;;;;;20.20;47.72;99746.66;5109181;28;20256;-88
2022/05/10 06:23:01;;;;;;;4.63;2.70;;;;;;;20.39;47.99;99745.63;5109618;28;20201;-88
2022/05/10 06:25:28;;;;;;;6.13;3.33;;;;;;;20.21;48.52;99747.47;5108603;28;20233;-85
2022/05/10 06:27:56;;;;;;;5.37;2.80;;;;;;;19.55;48.44;99749.72;5109397;28;20196;-82
2022/05/10 06:30:25;;;;;;;4.90;2.83;;;;;;;19.95;48.84;99748.34;5109108;28;20616;-87
2022/05/10 06:32:52;;;;;;;4.17;2.97;;;;;;;20.44;48.47;99748.53;5109335;28;20193;-88
2022/05/10 06:35:20;;;;;;;6.10;2.80;;;;;;;20.70;48.32;99753.66;5109089;28;20229;-89
2022/05/10 06:40:32;;;;;;;4.10;3.00;;;;;;;21.03;47.40;99757.13;5109361;28;20344;-88
2022/05/10 06:43:00;;;;;;;4.10;2.80;;;;;;;21.23;46.31;99754.19;5109315;28;20683;-89
2022/05/10 06:45:29;;;;;;;3.70;2.70;;;;;;;21.45;47.16;99755.34;5108741;28;20325;-86
2022/05/10 06:47:56;;;;;;;4.47;2.87;;;;;;;21.74;45.88;99752.19;5109009;28;20695;-88
2022/05/10 06:50:25;;;;;;;11.20;3.10;;;;;;;21.92;44.96;99755.38;5108937;28;20212;-88
2022/05/10 06:52:52;;;;;;;4.30;2.80;;;;;;;22.05;44.39;99761.84;5109175;28;20272;-87
2022/05/10 06:55:20;;;;;;;4.17;2.47;;;;;;;22.04;43.48;99758.44;5109064;28;20616;-89
2022/05/10 06:57:47;;;;;;;4.33;2.40;;;;;;;22.20;43.63;99762.81;5109091;28;20211;-88
2022/05/10 07:00:16;;;;;;;7.40;2.87;;;;;;;21.81;43.01;99753.13;5108430;28;20718;-89
2022/05/10 07:02:45;;;;;;;3.93;2.50;;;;;;;21.89;42.06;99757.53;5108931;28;20199;-90
2022/05/10 07:05:13;;;;;;;6.53;2.47;;;;;;;22.12;43.41;99755.00;5108518;28;20244;-89
2022/05/10 07:07:40;;;;;;;4.03;2.20;;;;;;;21.98;41.56;99758.31;5108826;28;20210;-89
2022/05/10 07:10:10;;;;;;;3.70;2.40;;;;;;;21.84;42.47;99758.00;5108343;28;20609;-90
2022/05/10 07:12:38;;;;;;;3.23;2.20;;;;;;;22.11;43.54;99769.03;5108927;28;20482;-89
2022/05/10 07:15:08;;;;;;;2.90;2.17;;;;;;;22.08;42.86;99764.16;5108527;28;20481;-89
2022/05/10 07:17:35;;;;;;;5.00;2.10;;;;;;;22.16;44.50;99771.91;5108668;28;20203;-89
2022/05/10 07:20:04;;;;;;;5.30;2.60;;;;;;;22.27;42.49;99766.34;5108258;28;20231;-89
2022/05/10 07:22:31;;;;;;;4.87;2.20;;;;;;;21.99;42.52;99765.13;5108560;28;20217;-89
2022/05/10 07:24:58;;;;;;;5.47;2.27;;;;;;;22.04;43.02;99768.06;5108547;28;20248;-91
2022/05/10 07:27:24;;;;;;;5.93;2.53;;;;;;;22.25;42.85;99764.91;5108812;28;20208;-91
2022/05/10 07:29:51;;;;;;;5.27;2.20;;;;;;;22.24;43.97;99774.50;5108399;28;20221;-87
2022/05/10 07:32:20;;;;;;;3.90;2.40;;;;;;;22.31;45.07;99770.25;5108698;28;20201;-88
2022/05/10 07:34:47;;;;;;;4.97;2.43;;;;;;;22.62;42.63;99772.03;5108231;28;20216;-87
2022/05/10 07:37:15;;;;;;;2.83;2.37;;;;;;;22.87;41.54;99771.91;5112044;28;20234;-88
2022/05/10 07:39:43;;;;;;;5.43;2.60;;;;;;;22.63;44.35;99778.91;5112369;28;20727;-88
2022/05/10 07:42:10;;;;;;;5.27;2.53;;;;;;;22.94;44.97;99770.22;5112829;28;20746;-88
2022/05/10 07:44:36;;;;;;;6.43;2.60;;;;;;;22.89;43.47;99769.91;5112226;28;20218;-88
2022/05/10 07:47:04;;;;;;;5.90;2.77;;;;;;;22.82;42.89;99770.63;5112615;28;20200;-87
2022/05/10 07:49:33;;;;;;;7.13;2.80;;;;;;;22.83;44.48;99767.03;5112486;28;20613;-86
2022/05/10 07:52:00;;;;;;;7.00;3.10;;;;;;;22.73;43.15;99774.25;5112538;28;20294;-89
2022/05/10 07:54:28;;;;;;;8.83;3.90;;;;;;;23.11;44.95;99774.34;5112382;28;20225;-88
2022/05/10 07:56:55;;;;;;;5.77;2.97;;;;;;;23.52;44.87;99774.00;5112298;28;20778;-89
2022/05/10 07:59:22;;;;;;;5.40;2.90;;;;;;;23.88;42.55;99770.72;5112677;28;20223;-90
2022/05/10 08:01:49;;;;;;;5.13;2.90;;;;;;;23.97;43.55;99777.50;5112766;28;20200;-92
2022/05/10 08:04:15;;;;;;;6.00;2.80;;;;;;;23.66;42.93;99773.22;5112384;28;20228;-89
2022/05/10 08:06:42;;;;;;;5.40;3.10;;;;;;;23.65;41.79;99784.66;5112376;28;20258;-90
2022/05/10 08:09:09;;;;;;;5.13;2.70;;;;;;;23.85;43.16;99773.69;5112447;28;21066;-89
2022/05/10 08:11:39;;;;;;;5.38;2.80;;;;;;;24.33;42.81;99777.53;5112378;28;20244;-90
2022/05/10 08:14:06;;;;;;;6.78;2.72;;;;;;;23.94;42.59;99777.84;5112104;28;20197;-89
2022/05/10 08:16:33;;;;;;;5.43;2.63;;;;;;;24.17;42.92;99767.28;5112182;28;20202;-90
2022/05/10 08:19:00;;;;;;;6.10;2.50;;;;;;;24.79;40.69;99771.22;5112206;28;20729;-90
2022/05/10 08:21:27;;;;;;;6.75;2.92;;;;;;;24.29;41.88;99770.22;5112408;28;20197;-92
2022/05/10 08:23:55;;;;;;;4.75;2.60;;;;;;;24.49;40.81;99776.53;5112212;28;20204;-90
2022/05/10 08:26:22;;;;;;;8.70;3.22;;;;;;;24.52;41.19;99773.56;5111978;28;20237;-90
2022/05/10 08:28:51;;;;;;;7.50;2.92;;;;;;;24.61;42.65;99772.44;5111955;28;20209;-91
2022/05/10 08:31:20;;;;;;;3.53;2.80;;;;;;;24.41;40.07;99771.41;5112024;28;20194;-91
2022/05/10 08:33:47;;;;;;;6.28;2.92;;;;;;;24.99;39.61;99771.41;5111924;28;20684;-90
2022/05/10 08:36:14;;;;;;;6.50;2.78;;;;;;;24.94;39.36;99779.00;5111805;28;20364;-89
2022/05/10 08:38:41;;;;;;;7.80;3.30;;;;;;;25.47;39.01;99780.28;5111584;28;20202;-90
2022/05/10 08:41:12;;;;;;;4.07;2.60;;;;;;;26.14;39.14;99780.69;5111747;28;20225;-91
2022/05/10 08:43:44;;;;;;;7.00;2.70;;;;;;;25.95;39.62;99777.78;5111707;28;20205;-91
2022/05/10 08:46:15;;;;;;;7.22;2.83;;;;;;;26.09;39.10;99780.47;5111217;28;20796;-89
2022/05/10 08:48:46;;;;;;;4.35;2.63;;;;;;;25.62;38.62;99776.75;5110701;28;20213;-91
2022/05/10 08:51:13;;;;;;;4.90;2.90;;;;;;;25.82;40.38;99777.69;5111810;28;20227;-91
2022/05/10 08:53:40;;;;;;;4.82;2.92;;;;;;;25.73;40.72;99778.84;5112119;28;20197;-92
2022/05/10 08:56:12;;;;;;;5.20;2.63;;;;;;;25.20;39.55;99778.47;5111451;28;20221;-90
2022/05/10 08:58:51;;;;;;;4.50;2.70;;;;;;;25.02;39.40;99774.47;5110818;28;20217;-91
2022/05/10 09:01:22;;;;;;;4.63;2.50;;;;;;;25.36;39.51;99772.94;5111863;28;20197;-92
2022/05/10 09:03:59;;;;;;;6.00;2.58;;;;;;;25.19;39.42;99771.59;5111414;28;20694;-91
2022/05/10 09:06:36;;;;;;;6.43;4.30;;;;;;;25.47;39.42;99769.78;5111181;28;20228;-91
2022/05/10 09:09:17;;;;;;;5.65;3.33;;;;;;;25.91;39.81;99768.69;5111220;28;20707;-90
2022/05/10 09:11:52;;;;;;;4.80;2.70;;;;;;;26.09;40.73;99777.84;5111230;28;20237;-89
2022/05/10 09:14:28;;;;;;;5.28;2.60;;;;;;;26.08;37.19;99777.03;5111387;28;20221;-89
2022/05/10 09:16:57;;;;;;;4.90;2.65;;;;;;;25.81;38.54;99776.06;5110940;28;20208;-92
2022/05/10 09:19:38;;;;;;;4.28;2.80;;;;;;;26.11;40.45;99778.47;5110751;28;20734;-93
2022/05/10 09:22:17;;;;;;;5.22;2.80;;;;;;;26.19;41.39;99775.69;5111060;28;20212;-88
2022/05/10 09:24:49;;;;;;;5.47;3.10;;;;;;;26.32;39.10;99767.84;5110971;28;20278;-91
2022/05/10 09:27:19;;;;;;;3.80;2.58;;;;;;;26.55;37.37;99757.06;5111090;28;20308;-89
2022/05/10 09:29:48;;;;;;;4.30;2.63;;;;;;;26.06;39.96;99762.50;5111616;28;20233;-88
2022/05/10 09:35:12;;;;;;;4.95;2.80;;;;;;;26.52;37.97;99762.69;5111504;28;20331;-92
2022/05/10 09:37:44;;;;;;;5.13;2.78;;;;;;;26.38;38.95;99756.59;5111287;28;20212;-90
2022/05/10 09:40:30;;;;;;;3.92;2.55;;;;;;;26.32;39.58;99749.50;5111225;28;20245;-89
2022/05/10 09:43:17;;;;;;;3.33;2.45;;;;;;;26.47;38.90;99748.53;5111278;28;20663;-92
2022/05/10 09:45:45;;;;;;;3.95;2.70;;;;;;;26.91;38.95;99755.09;5111018;28;20694;-90
2022/05/10 09:48:17;;;;;;;4.32;2.75;;;;;;;26.99;38.36;99744.38;5111020;28;20206;-93
2022/05/10 09:50:45;;;;;;;4.18;2.65;;;;;;;26.74;37.77;99754.69;5110674;28;20217;-90
2022/05/10 09:53:20;;;;;;;5.70;2.95;;;;;;;26.90;40.07;99750.84;5110977;28;20212;-93
2022/05/10 09:56:00;;;;;;;3.17;2.33;;;;;;;26.58;39.48;99753.22;5110962;28;21077;-90
2022/05/10 09:58:30;;;;;;;4.93;2.60;;;;;;;26.69;35.07;99747.41;5110970;28;20197;-93
2022/05/10 10:00:59;;;;;;;5.63;2.70;;;;;;;26.47;38.18;99748.53;5109689;28;20257;-92
2022/05/10 10:03:29;;;;;;;5.63;2.55;;;;;;;26.94;38.16;99738.97;5110249;28;20262;-91
2022/05/10 10:06:13;;;;;;;4.03;2.40;;;;;;;26.92;37.81;99735.72;5110373;28;20228;-88
2022/05/10 10:08:41;;;;;;;4.70;2.80;;;;;;;27.36;38.36;99736.94;5110909;28;20212;-89
2022/05/10 10:11:13;;;;;;;4.20;2.95;;;;;;;27.35;38.36;99740.59;5110464;28;20300;-89
2022/05/10 10:13:43;;;;;;;8.57;3.13;;;;;;;27.23;38.70;99733.31;5110509;28;21217;-90
2022/05/10 10:16:17;;;;;;;5.93;2.78;;;;;;;27.15;38.36;99735.31;5110066;28;20227;-93
2022/05/10 10:18:48;;;;;;;5.05;2.75;;;;;;;26.94;40.98;99733.72;5110098;28;20442;-90
2022/05/10 10:21:21;;;;;;;4.22;3.10;;;;;;;26.78;39.15;99719.97;5109755;28;20672;-91
2022/05/10 10:23:53;;;;;;;5.38;2.70;;;;;;;27.11;37.70;99724.41;5109887;28;20205;-88
2022/05/10 10:26:26;;;;;;;5.95;2.80;;;;;;;27.09;37.31;99722.00;5109737;28;20233;-91
2022/05/10 10:28:58;;;;;;;4.85;2.85;;;;;;;27.01;36.88;99724.00;5109950;28;20201;-91
2022/05/10 10:31:28;;;;;;;3.63;2.75;;;;;;;26.35;38.95;99722.88;5109076;28;20202;-89
2022/05/10 10:34:02;;;;;;;7.90;2.67;;;;;;;26.26;37.86;99721.44;5109064;28;20208;-89
2022/05/10 10:36:34;;;;;;;6.43;2.60;;;;;;;26.23;38.28;99715.78;5108204;28;20273;-86
2022/05/10 10:39:07;;;;;;;5.80;2.80;;;;;;;26.36;37.76;99721.88;5109231;28;20288;-88
2022/05/10 10:41:41;;;;;;;5.20;2.60;;;;;;;26.33;36.70;99721.47;5107889;28;20193;-90
2022/05/10 10:44:16;;;;;;;3.47;2.20;;;;;;;26.14;37.18;99717.78;5108007;28;20851;-88
2022/05/10 10:46:52;;;;;;;3.90;2.42;;;;;;;25.85;39.01;99724.91;5108886;28;20323;-87
2022/05/10 10:49:25;;;;;;;3.25;2.47;;;;;;;26.03;38.17;99720.97;5109104;28;20225;-88
2022/05/10 10:51:52;;;;;;;7.28;2.80;;;;;;;25.68;38.11;99719.16;5108827;28;20221;-88
2022/05/10 10:54:23;;;;;;;7.40;2.92;;;;;;;25.61;39.62;99712.28;5109051;28;20225;-87
2022/05/10 10:57:00;;;;;;;5.18;2.90;;;;;;;25.22;38.58;99713.63;5108208;28;20196;-91
2022/05/10 10:59:45;;;;;;;6.38;3.20;;;;;;;24.63;42.24;99710.31;5109092;28;20213;-90
2022/05/10 11:02:32;;;;;;;7.47;3.50;;;;;;;24.68;41.82;99712.38;5109044;28;20193;-87
2022/05/10 11:05:16;;;;;;;7.75;2.80;;;;;;;24.68;43.22;99708.94;5108725;28;20221;-87
2022/05/10 11:07:55;;;;;;;4.55;3.05;;;;;;;24.87;41.74;99700.47;5108821;28;20240;-88
2022/05/10 11:10:34;;;;;;;6.03;2.97;;;;;;;24.96;40.93;99704.56;5108736;28;20585;-90
2022/05/10 11:13:13;;;;;;;4.93;2.83;;;;;;;24.84;43.71;99701.66;5108920;28;20197;-89
2022/05/10 11:15:46;;;;;;;3.97;3.20;;;;;;;24.81;41.81;99691.59;5108517;28;20224;-89
2022/05/10 11:18:30;;;;;;;4.03;3.13;;;;;;;24.80;41.79;99684.72;5108638;28;20208;-88
2022/05/10 11:21:13;;;;;;;4.57;3.35;;;;;;;24.58;41.07;99681.31;5109237;28;20711;-88
2022/05/10 11:24:03;;;;;;;3.42;2.70;;;;;;;24.48;41.85;99680.00;5108779;28;20205;-88
2022/05/10 11:26:55;;;;;;;7.60;2.72;;;;;;;24.58;39.76;99678.69;5108631;28;20232;-91
2022/05/10 11:29:37;;;;;;;3.17;2.60;;;;;;;24.83;41.20;99684.34;5108361;28;20224;-88
2022/05/10 11:32:19;;;;;;;4.72;3.05;;;;;;;24.70;43.52;99683.44;5108598;28;20228;-88
2022/05/10 11:35:01;;;;;;;4.90;3.25;;;;;;;24.67;44.13;99674.16;5108701;28;20236;-90
2022/05/10 11:37:33;;;;;;;8.45;3.40;;;;;;;24.75;44.00;99681.03;5108908;28;20194;-88
2022/05/10 11:40:23;;;;;;;9.52;3.38;;;;;;;24.40;43.72;99670.44;5108763;28;20236;-90
2022/05/10 11:43:16;;;;;;;4.55;3.35;;;;;;;24.50;41.95;99668.38;5108542;28;20201;-89
2022/05/10 11:45:59;;;;;;;7.93;3.40;;;;;;;24.52;43.69;99666.38;5108190;28;20240;-90
2022/05/10 11:48:50;;;;;;;6.00;3.35;;;;;;;24.50;42.58;99663.13;5108577;28;20225;-90
2022/05/10 11:51:43;;;;;;;3.80;2.80;;;;;;;24.37;42.20;99655.94;5099416;28;20205;-92
2022/05/10 11:54:43;;;;;;;7.20;3.53;;;;;;;24.44;44.19;99652.63;5108469;28;20260;-89
2022/05/10 11:57:14;;;;;;;5.20;3.30;;;;;;;24.38;42.93;99649.72;5103548;28;20215;-91
2022/05/10 11:59:42;;;;;;;6.53;3.25;;;;;;;24.59;42.55;99648.94;5108415;28;20297;-88
2022/05/10 12:02:45;;;;;;;5.43;3.28;;;;;;;25.02;44.18;99648.88;5108207;28;20194;-91